createdAt,value
2018-03-25T00:00:48.381Z,42.10
2018-03-25T00:01:48.367Z,41.10
2018-03-25T00:02:48.389Z,42.50
2018-03-25T00:03:48.385Z,40.60
2018-03-25T00:04:48.354Z,41.10
2018-03-25T00:05:48.361Z,42.90
2018-03-25T00:06:48.356Z,41.30
2018-03-25T00:07:48.352Z,43.30
2018-03-25T00:08:48.367Z,42.80
2018-03-25T00:09:48.362Z,42.10
2018-03-25T00:10:48.349Z,42.70
2018-03-25T00:11:48.355Z,43.00
2018-03-25T00:12:48.352Z,42.70
2018-03-25T00:13:48.347Z,43.70
2018-03-25T00:14:48.325Z,41.70
2018-03-25T00:15:48.312Z,42.20
2018-03-25T00:16:48.319Z,42.30
2018-03-25T00:17:48.304Z,41.10
2018-03-25T00:18:48.311Z,40.90
2018-03-25T00:19:48.310Z,41.20
2018-03-25T00:20:48.321Z,43.50
2018-03-25T00:21:48.289Z,42.90
2018-03-25T00:22:48.285Z,43.60
2018-03-25T00:23:48.299Z,43.80
2018-03-25T00:24:48.306Z,42.80
2018-03-25T00:25:48.273Z,42.80
2018-03-25T00:26:48.270Z,42.60
2018-03-25T00:27:48.281Z,42.10
2018-03-25T00:28:48.272Z,41.10
2018-03-25T00:29:48.267Z,42.40
2018-03-25T00:30:48.263Z,42.40
2018-03-25T00:31:48.250Z,41.30
2018-03-25T00:32:48.254Z,40.80
2018-03-25T00:33:48.252Z,37.80
2018-03-25T00:34:48.250Z,37.00
2018-03-25T00:35:48.237Z,37.70
2018-03-25T00:36:48.238Z,37.80
2018-03-25T00:37:48.247Z,36.70
2018-03-25T00:38:48.252Z,35.20
2018-03-25T00:39:48.248Z,34.60
2018-03-25T00:40:48.241Z,37.50
2018-03-25T00:41:48.221Z,35.10
2018-03-25T00:42:48.217Z,37.10
2018-03-25T00:43:48.214Z,36.10
2018-03-25T00:44:48.211Z,35.90
2018-03-25T00:45:48.196Z,35.90
2018-03-25T00:46:48.199Z,34.60
2018-03-25T00:47:48.191Z,33.60
2018-03-25T00:48:48.198Z,30.40
2018-03-25T00:49:48.190Z,30.00
2018-03-25T00:50:48.188Z,30.50
2018-03-25T00:51:48.183Z,30.00
2018-03-25T00:52:48.223Z,29.50
2018-03-25T00:53:48.175Z,33.00
2018-03-25T00:54:48.168Z,37.40
2018-03-25T00:55:48.160Z,39.30
2018-03-25T00:56:48.164Z,38.10
2018-03-25T00:57:48.265Z,39.50
2018-03-25T00:58:48.156Z,40.10
2018-03-25T00:59:48.184Z,39.40
2018-03-25T01:00:48.147Z,39.00
2018-03-25T01:01:48.144Z,38.10
2018-03-25T01:02:48.159Z,37.00
2018-03-25T01:03:48.137Z,32.50
2018-03-25T01:04:48.135Z,27.00
2018-03-25T01:05:48.147Z,28.10
2018-03-25T01:06:48.122Z,27.30
2018-03-25T01:07:48.118Z,29.30
2018-03-25T01:08:48.136Z,28.80
2018-03-25T01:09:48.131Z,31.40
2018-03-25T01:10:48.110Z,35.00
2018-03-25T01:11:48.103Z,32.60
2018-03-25T01:12:48.103Z,29.50
2018-03-25T01:13:48.098Z,30.80
2018-03-25T01:14:48.091Z,30.50
2018-03-25T01:15:48.237Z,31.50
2018-03-25T01:16:48.102Z,31.80
2018-03-25T01:17:48.083Z,30.20
2018-03-25T01:18:48.082Z,30.80
2018-03-25T01:19:48.072Z,29.20
2018-03-25T01:20:48.064Z,28.90
2018-03-25T01:21:48.135Z,28.90
2018-03-25T01:22:48.060Z,27.10
2018-03-25T01:23:48.078Z,27.90
2018-03-25T01:24:48.056Z,27.90
2018-03-25T01:25:48.050Z,26.60
2018-03-25T01:26:48.067Z,26.00
2018-03-25T01:27:48.037Z,26.70
2018-03-25T01:28:48.041Z,26.30
2018-03-25T01:29:48.034Z,26.00
2018-03-25T01:30:48.052Z,25.90
2018-03-25T01:31:48.030Z,25.10
2018-03-25T01:32:48.026Z,25.80
2018-03-25T01:33:48.020Z,26.00
2018-03-25T01:34:48.010Z,26.10
2018-03-25T01:35:48.015Z,26.10
2018-03-25T01:36:48.012Z,26.90
2018-03-25T01:37:48.004Z,27.60
2018-03-25T01:38:48.013Z,27.70
2018-03-25T01:39:48.001Z,29.10
2018-03-25T01:40:48.005Z,29.30
2018-03-25T01:41:47.992Z,29.10
2018-03-25T01:42:48.007Z,28.10
2018-03-25T01:43:47.980Z,28.00
2018-03-25T01:44:47.981Z,28.40
2018-03-25T01:45:47.990Z,28.60
2018-03-25T01:46:47.991Z,27.20
2018-03-25T01:47:47.971Z,28.60
2018-03-25T01:48:47.957Z,28.20
2018-03-25T01:49:47.958Z,28.40
2018-03-25T01:50:47.959Z,28.30
2018-03-25T01:51:48.004Z,27.60
2018-03-25T01:52:47.950Z,27.80
2018-03-25T01:53:47.965Z,26.90
2018-03-25T01:54:47.964Z,27.20
2018-03-25T01:55:47.936Z,26.50
2018-03-25T01:56:48.033Z,26.10
2018-03-25T01:57:47.943Z,26.90
2018-03-25T01:58:47.944Z,27.20
2018-03-25T01:59:47.925Z,26.20
2018-03-25T02:00:47.927Z,26.90
2018-03-25T02:01:47.913Z,25.50
2018-03-25T02:02:47.925Z,28.30
2018-03-25T02:03:47.960Z,28.50
2018-03-25T02:04:47.903Z,27.80
2018-03-25T02:05:47.901Z,28.80
2018-03-25T02:06:47.890Z,27.20
2018-03-25T02:07:47.895Z,27.40
2018-03-25T02:08:47.896Z,27.00
2018-03-25T02:09:47.948Z,27.60
2018-03-25T02:10:47.895Z,27.70
2018-03-25T02:11:47.868Z,26.20
2018-03-25T02:12:47.874Z,26.30
2018-03-25T02:13:47.861Z,27.30
2018-03-25T02:14:47.883Z,26.60
2018-03-25T02:15:47.862Z,26.90
2018-03-25T02:16:47.873Z,27.60
2018-03-25T02:17:47.870Z,26.70
2018-03-25T02:18:47.860Z,27.00
2018-03-25T02:19:47.864Z,26.70
2018-03-25T02:20:47.844Z,27.00
2018-03-25T02:21:48.086Z,26.50
2018-03-25T02:22:47.837Z,26.20
2018-03-25T02:23:47.829Z,26.20
2018-03-25T02:24:47.824Z,24.80
2018-03-25T02:25:47.815Z,24.50
2018-03-25T02:26:47.821Z,24.20
2018-03-25T02:27:47.831Z,25.90
2018-03-25T02:28:47.809Z,25.20
2018-03-25T02:29:47.827Z,24.80
2018-03-25T02:30:47.817Z,24.30
2018-03-25T02:31:47.815Z,24.90
2018-03-25T02:32:47.798Z,24.20
2018-03-25T02:33:47.794Z,24.70
2018-03-25T02:34:47.802Z,22.80
2018-03-25T02:35:47.783Z,23.30
2018-03-25T02:36:47.779Z,22.00
2018-03-25T02:37:47.774Z,23.80
2018-03-25T02:38:47.788Z,23.40
2018-03-25T02:39:47.783Z,22.30
2018-03-25T02:40:47.784Z,21.70
2018-03-25T02:41:47.777Z,21.90
2018-03-25T02:42:47.776Z,21.80
2018-03-25T02:43:47.755Z,20.30
2018-03-25T02:44:47.766Z,21.10
2018-03-25T02:45:47.793Z,20.70
2018-03-25T02:46:47.738Z,19.10
2018-03-25T02:47:47.738Z,16.30
2018-03-25T02:48:47.750Z,14.50
2018-03-25T02:49:47.748Z,13.10
2018-03-25T02:50:47.727Z,11.90
2018-03-25T02:51:47.739Z,11.40
2018-03-25T02:52:47.712Z,11.40
2018-03-25T02:53:47.714Z,11.10
2018-03-25T02:54:47.710Z,10.50
2018-03-25T02:55:47.703Z,10.60
2018-03-25T02:56:47.695Z,10.60
2018-03-25T02:57:47.699Z,10.10
2018-03-25T02:58:47.712Z,9.70
2018-03-25T02:59:47.686Z,10.10
2018-03-25T03:00:47.682Z,9.80
2018-03-25T03:01:47.698Z,9.10
2018-03-25T03:02:47.677Z,9.00
2018-03-25T03:03:47.670Z,7.90
2018-03-25T03:04:47.687Z,8.00
2018-03-25T03:05:47.654Z,7.60
2018-03-25T03:06:47.656Z,7.90
2018-03-25T03:07:47.663Z,8.10
2018-03-25T03:08:47.653Z,7.50
2018-03-25T03:09:47.648Z,7.40
2018-03-25T03:10:47.643Z,7.30
2018-03-25T03:11:47.635Z,7.10
2018-03-25T03:12:47.625Z,6.70
2018-03-25T03:13:47.645Z,6.80
2018-03-25T03:14:47.629Z,6.90
2018-03-25T03:15:47.622Z,6.70
2018-03-25T03:16:47.619Z,7.00
2018-03-25T03:17:47.613Z,6.60
2018-03-25T03:18:47.624Z,7.30
2018-03-25T03:19:47.616Z,7.70
2018-03-25T03:20:47.617Z,6.30
2018-03-25T03:21:47.592Z,6.80
2018-03-25T03:22:47.593Z,7.60
2018-03-25T03:23:47.602Z,6.60
2018-03-25T03:24:47.597Z,7.50
2018-03-25T03:25:47.579Z,6.40
2018-03-25T03:26:47.571Z,6.60
2018-03-25T03:27:47.567Z,6.70
2018-03-25T03:28:47.561Z,6.70
2018-03-25T03:29:47.553Z,6.40
2018-03-25T03:30:47.571Z,7.20
2018-03-25T03:31:47.556Z,7.60
2018-03-25T03:32:47.564Z,6.90
2018-03-25T03:33:47.557Z,7.30
2018-03-25T03:34:47.544Z,6.90
2018-03-25T03:35:47.538Z,7.30
2018-03-25T03:36:47.546Z,6.60
2018-03-25T03:37:47.545Z,7.20
2018-03-25T03:38:47.524Z,6.90
2018-03-25T03:39:47.520Z,6.70
2018-03-25T03:40:47.516Z,6.70
2018-03-25T03:41:47.528Z,6.80
2018-03-25T03:42:47.508Z,6.90
2018-03-25T03:43:47.503Z,6.80
2018-03-25T03:44:47.502Z,7.50
2018-03-25T03:45:47.511Z,6.70
2018-03-25T03:46:47.491Z,6.80
2018-03-25T03:47:47.503Z,6.10
2018-03-25T03:48:47.499Z,6.80
2018-03-25T03:49:47.494Z,7.30
2018-03-25T03:50:47.474Z,6.80
2018-03-25T03:51:47.482Z,6.40
2018-03-25T03:52:47.477Z,7.00
2018-03-25T03:53:47.460Z,7.30
2018-03-25T03:54:47.454Z,7.00
2018-03-25T03:55:47.449Z,7.10
2018-03-25T03:56:47.465Z,7.40
2018-03-25T03:57:47.543Z,7.50
2018-03-25T03:58:47.441Z,6.90
2018-03-25T03:59:47.435Z,6.60
2018-03-25T04:00:47.429Z,7.50
2018-03-25T04:01:47.430Z,6.50
2018-03-25T04:02:47.439Z,7.50
2018-03-25T04:03:47.418Z,7.60
2018-03-25T04:04:47.422Z,7.00
2018-03-25T04:05:47.409Z,7.70
2018-03-25T04:06:47.404Z,6.80
2018-03-25T04:07:47.400Z,7.40
2018-03-25T04:08:47.395Z,7.00
2018-03-25T04:09:47.408Z,7.00
2018-03-25T04:10:47.387Z,8.10
2018-03-25T04:11:47.399Z,7.60
2018-03-25T04:12:47.395Z,7.00
2018-03-25T04:13:47.377Z,6.60
2018-03-25T04:14:47.370Z,7.40
2018-03-25T04:15:47.368Z,8.20
2018-03-25T04:16:47.359Z,7.40
2018-03-25T04:17:47.372Z,8.40
2018-03-25T04:18:47.350Z,7.80
2018-03-25T04:19:47.353Z,7.10
2018-03-25T04:20:47.341Z,7.60
2018-03-25T04:21:47.340Z,7.80
2018-03-25T04:22:47.334Z,7.70
2018-03-25T04:23:47.327Z,8.00
2018-03-25T04:24:47.323Z,7.60
2018-03-25T04:25:47.321Z,7.90
2018-03-25T04:26:47.330Z,7.70
2018-03-25T04:27:47.314Z,8.30
2018-03-25T04:28:47.311Z,8.30
2018-03-25T04:29:47.300Z,7.80
2018-03-25T04:30:47.299Z,7.90
2018-03-25T04:31:47.308Z,7.80
2018-03-25T04:32:47.289Z,8.90
2018-03-25T04:33:47.284Z,8.80
2018-03-25T04:34:47.284Z,8.20
2018-03-25T04:35:47.275Z,8.40
2018-03-25T04:36:47.275Z,8.80
2018-03-25T04:37:47.267Z,9.30
2018-03-25T04:38:47.262Z,9.00
2018-03-25T04:39:47.278Z,9.60
2018-03-25T04:40:47.254Z,9.90
2018-03-25T04:41:47.249Z,8.80
2018-03-25T04:42:47.260Z,9.80
2018-03-25T04:43:47.241Z,9.40
2018-03-25T04:44:47.232Z,8.90
2018-03-25T04:45:47.232Z,10.00
2018-03-25T04:46:47.228Z,9.50
2018-03-25T04:47:47.217Z,9.70
2018-03-25T04:48:47.220Z,10.20
2018-03-25T04:49:47.214Z,10.00
2018-03-25T04:50:47.215Z,10.50
2018-03-25T04:51:47.199Z,10.50
2018-03-25T04:52:47.202Z,10.90
2018-03-25T04:53:47.192Z,10.50
2018-03-25T04:54:47.187Z,10.40
2018-03-25T04:55:47.208Z,11.00
2018-03-25T04:56:47.193Z,11.20
2018-03-25T04:57:47.182Z,11.00
2018-03-25T04:58:47.175Z,11.30
2018-03-25T04:59:47.172Z,10.80
2018-03-25T05:00:47.169Z,10.40
2018-03-25T05:01:47.162Z,10.80
2018-03-25T05:02:47.157Z,10.90
2018-03-25T05:03:47.169Z,11.80
2018-03-25T05:04:47.154Z,11.00
2018-03-25T05:05:47.159Z,10.90
2018-03-25T05:06:47.140Z,10.70
2018-03-25T05:07:47.145Z,10.80
2018-03-25T05:08:47.131Z,10.80
2018-03-25T05:09:47.121Z,10.70
2018-03-25T05:10:47.125Z,11.30
2018-03-25T05:11:47.111Z,11.30
2018-03-25T05:12:47.112Z,10.90
2018-03-25T05:13:47.112Z,11.00
2018-03-25T05:14:47.101Z,11.40
2018-03-25T05:15:47.100Z,11.70
2018-03-25T05:16:47.095Z,11.30
2018-03-25T05:17:47.090Z,10.90
2018-03-25T05:18:47.086Z,11.60
2018-03-25T05:19:47.084Z,11.20
2018-03-25T05:20:47.077Z,11.20
2018-03-25T05:21:47.075Z,11.70
2018-03-25T05:22:47.072Z,11.20
2018-03-25T05:23:47.068Z,11.40
2018-03-25T05:24:47.059Z,12.20
2018-03-25T05:25:47.054Z,11.30
2018-03-25T05:26:47.055Z,12.30
2018-03-25T05:27:47.150Z,11.80
2018-03-25T05:28:47.035Z,11.90
2018-03-25T05:29:47.031Z,12.30
2018-03-25T05:30:47.032Z,12.10
2018-03-25T05:31:47.033Z,12.30
2018-03-25T05:32:47.024Z,12.10
2018-03-25T05:33:47.018Z,12.90
2018-03-25T05:34:47.014Z,12.20
2018-03-25T05:35:47.026Z,11.80
2018-03-25T05:36:47.005Z,12.00
2018-03-25T05:37:47.000Z,12.90
2018-03-25T05:38:46.995Z,12.80
2018-03-25T05:39:46.990Z,12.20
2018-03-25T05:40:47.005Z,12.10
2018-03-25T05:41:46.994Z,12.30
2018-03-25T05:42:46.988Z,11.50
2018-03-25T05:43:46.990Z,12.00
2018-03-25T05:44:46.990Z,12.30
2018-03-25T05:45:46.963Z,12.10
2018-03-25T05:46:46.958Z,13.00
2018-03-25T05:47:46.971Z,12.30
2018-03-25T05:48:46.950Z,13.10
2018-03-25T05:49:46.961Z,12.90
2018-03-25T05:50:46.957Z,12.60
2018-03-25T05:51:46.928Z,13.10
2018-03-25T05:52:46.930Z,12.30
2018-03-25T05:53:46.943Z,12.60
2018-03-25T05:54:46.920Z,12.00
2018-03-25T05:55:46.935Z,12.40
2018-03-25T05:56:46.912Z,12.10
2018-03-25T05:57:46.924Z,14.60
2018-03-25T05:58:46.902Z,13.70
2018-03-25T05:59:46.897Z,13.30
2018-03-25T06:00:46.892Z,14.30
2018-03-25T06:01:46.900Z,14.20
2018-03-25T06:02:46.883Z,14.00
2018-03-25T06:03:46.878Z,13.90
2018-03-25T06:04:46.886Z,13.60
2018-03-25T06:05:46.868Z,14.10
2018-03-25T06:06:46.883Z,14.70
2018-03-25T06:07:46.890Z,13.80
2018-03-25T06:08:46.859Z,13.90
2018-03-25T06:09:46.866Z,14.10
2018-03-25T06:10:46.853Z,14.10
2018-03-25T06:11:46.842Z,15.00
2018-03-25T06:12:46.846Z,15.20
2018-03-25T06:13:46.848Z,15.70
2018-03-25T06:14:46.843Z,14.40
2018-03-25T06:15:46.891Z,14.40
2018-03-25T06:16:46.815Z,14.70
2018-03-25T06:17:46.819Z,14.80
2018-03-25T06:18:46.814Z,14.60
2018-03-25T06:19:46.812Z,15.00
2018-03-25T06:20:46.795Z,15.20
2018-03-25T06:21:46.797Z,14.90
2018-03-25T06:22:46.807Z,15.20
2018-03-25T06:23:46.795Z,14.20
2018-03-25T06:24:46.779Z,14.80
2018-03-25T06:25:46.773Z,14.00
2018-03-25T06:26:46.758Z,13.30
2018-03-25T06:27:46.753Z,13.60
2018-03-25T06:28:46.759Z,13.30
2018-03-25T06:29:46.748Z,13.60
2018-03-25T06:30:46.740Z,14.10
2018-03-25T06:31:46.743Z,12.40
2018-03-25T06:32:46.744Z,12.50
2018-03-25T06:33:46.747Z,12.00
2018-03-25T06:34:46.725Z,12.00
2018-03-25T06:35:46.721Z,11.20
2018-03-25T06:36:46.714Z,11.50
2018-03-25T06:37:46.704Z,11.30
2018-03-25T06:38:46.696Z,11.50
2018-03-25T06:39:46.701Z,9.40
2018-03-25T06:40:46.697Z,9.20
2018-03-25T06:41:46.687Z,10.00
2018-03-25T06:42:46.687Z,9.70
2018-03-25T06:43:46.671Z,8.90
2018-03-25T06:44:46.679Z,9.00
2018-03-25T06:45:46.786Z,8.30
2018-03-25T06:46:46.655Z,9.00
2018-03-25T06:47:46.672Z,8.90
2018-03-25T06:48:46.647Z,9.80
2018-03-25T06:49:46.645Z,9.50
2018-03-25T06:50:46.635Z,8.90
2018-03-25T06:51:46.637Z,8.30
2018-03-25T06:52:46.632Z,8.00
2018-03-25T06:53:46.635Z,8.60
2018-03-25T06:54:46.636Z,7.50
2018-03-25T06:55:46.610Z,6.50
2018-03-25T06:56:46.612Z,6.70
2018-03-25T06:57:46.600Z,7.00
2018-03-25T06:58:46.596Z,5.70
2018-03-25T06:59:46.600Z,5.50
2018-03-25T07:00:46.590Z,6.10
2018-03-25T07:01:46.583Z,6.40
2018-03-25T07:02:46.574Z,5.80
2018-03-25T07:03:46.570Z,6.20
2018-03-25T07:04:46.570Z,5.50
2018-03-25T07:05:46.558Z,3.90
2018-03-25T07:06:46.560Z,4.00
2018-03-25T07:07:46.554Z,3.50
2018-03-25T07:08:46.554Z,3.00
2018-03-25T07:09:46.544Z,3.10
2018-03-25T07:10:46.543Z,2.50
2018-03-25T07:11:46.535Z,3.30
2018-03-25T07:12:46.533Z,2.60
2018-03-25T07:13:46.519Z,2.80
2018-03-25T07:14:46.523Z,2.90
2018-03-25T07:15:46.507Z,2.80
2018-03-25T07:16:46.504Z,2.70
2018-03-25T07:17:46.496Z,3.00
2018-03-25T07:18:46.501Z,2.50
2018-03-25T07:19:46.488Z,2.60
2018-03-25T07:20:46.489Z,2.50
2018-03-25T07:21:46.479Z,2.70
2018-03-25T07:22:46.472Z,2.70
2018-03-25T07:23:46.473Z,2.50
2018-03-25T07:24:46.461Z,2.90
2018-03-25T07:25:46.457Z,2.50
2018-03-25T07:26:46.452Z,2.60
2018-03-25T07:27:46.457Z,2.40
2018-03-25T07:28:46.442Z,2.60
2018-03-25T07:29:46.446Z,2.40
2018-03-25T07:30:46.430Z,2.40
2018-03-25T07:31:46.425Z,2.30
2018-03-25T07:32:46.421Z,2.40
2018-03-25T07:33:46.416Z,2.10
2018-03-25T07:34:46.409Z,2.40
2018-03-25T07:35:46.414Z,2.40
2018-03-25T07:36:46.406Z,2.20
2018-03-25T07:37:46.406Z,2.10
2018-03-25T07:38:46.395Z,2.30
2018-03-25T07:39:46.391Z,2.40
2018-03-25T07:40:46.390Z,2.20
2018-03-25T07:41:46.376Z,2.40
2018-03-25T07:42:46.371Z,1.90
2018-03-25T07:43:46.376Z,2.10
2018-03-25T07:44:46.369Z,1.80
2018-03-25T07:45:46.363Z,2.20
2018-03-25T07:46:46.348Z,2.10
2018-03-25T07:47:46.343Z,1.90
2018-03-25T07:48:46.340Z,2.10
2018-03-25T07:49:46.344Z,2.10
2018-03-25T07:50:46.340Z,2.10
2018-03-25T07:51:46.326Z,1.90
2018-03-25T07:52:46.324Z,2.10
2018-03-25T07:53:46.320Z,2.50
2018-03-25T07:54:46.318Z,2.10
2018-03-25T07:55:46.313Z,2.10
2018-03-25T07:56:46.308Z,2.10
2018-03-25T07:57:46.293Z,2.10
2018-03-25T07:58:46.302Z,2.30
2018-03-25T07:59:46.283Z,2.10
2018-03-25T08:00:46.283Z,2.00
2018-03-25T08:01:46.284Z,2.30
2018-03-25T08:02:46.275Z,2.10
2018-03-25T08:03:46.272Z,2.40
2018-03-25T08:04:46.267Z,2.00
2018-03-25T08:05:46.261Z,2.30
2018-03-25T08:06:46.257Z,2.30
2018-03-25T08:07:46.250Z,2.30
2018-03-25T08:08:46.245Z,2.40
2018-03-25T08:09:46.230Z,2.40
2018-03-25T08:10:46.235Z,2.30
2018-03-25T08:11:46.249Z,2.10
2018-03-25T08:12:46.243Z,2.20
2018-03-25T08:13:46.238Z,2.30
2018-03-25T08:14:46.229Z,2.30
2018-03-25T08:15:46.210Z,2.60
2018-03-25T08:16:46.223Z,2.70
2018-03-25T08:17:46.204Z,2.30
2018-03-25T08:18:46.194Z,2.20
2018-03-25T08:19:46.190Z,2.30
2018-03-25T08:20:46.186Z,2.50
2018-03-25T08:21:46.184Z,2.70
2018-03-25T08:22:46.177Z,2.50
2018-03-25T08:23:46.160Z,2.30
2018-03-25T08:24:46.164Z,2.70
2018-03-25T08:25:46.156Z,2.50
2018-03-25T08:26:46.155Z,2.20
2018-03-25T08:27:46.147Z,2.50
2018-03-25T08:28:46.163Z,2.50
2018-03-25T08:29:46.153Z,2.70
2018-03-25T08:30:46.134Z,2.90
2018-03-25T08:31:46.130Z,2.90
2018-03-25T08:32:46.124Z,3.00
2018-03-25T08:33:46.120Z,2.80
2018-03-25T08:34:46.111Z,2.70
2018-03-25T08:35:46.110Z,2.50
2018-03-25T08:36:46.101Z,3.40
2018-03-25T08:37:46.099Z,3.50
2018-03-25T08:38:46.094Z,2.60
2018-03-25T08:39:46.088Z,3.20
2018-03-25T08:40:46.085Z,2.80
2018-03-25T08:41:46.096Z,4.00
2018-03-25T08:42:46.090Z,3.30
2018-03-25T08:43:46.067Z,3.50
2018-03-25T08:44:46.077Z,3.50
2018-03-25T08:45:46.053Z,3.70
2018-03-25T08:46:46.071Z,3.90
2018-03-25T08:47:46.061Z,4.00
2018-03-25T08:48:46.039Z,4.10
2018-03-25T08:49:46.032Z,3.40
2018-03-25T08:50:46.050Z,3.10
2018-03-25T08:51:46.128Z,3.40
2018-03-25T08:52:46.014Z,3.10
2018-03-25T08:53:46.030Z,3.40
2018-03-25T08:54:46.007Z,2.90
2018-03-25T08:55:46.014Z,3.20
2018-03-25T08:56:45.998Z,3.20
2018-03-25T08:57:45.991Z,3.40
2018-03-25T08:58:45.991Z,3.40
2018-03-25T08:59:45.999Z,3.50
2018-03-25T09:00:45.976Z,3.30
2018-03-25T09:01:45.973Z,3.50
2018-03-25T09:02:45.987Z,3.20
2018-03-25T09:03:45.961Z,3.50
2018-03-25T09:04:45.973Z,2.90
2018-03-25T09:05:45.943Z,3.30
2018-03-25T09:06:45.944Z,3.40
2018-03-25T09:07:45.942Z,2.90
2018-03-25T09:08:45.935Z,3.00
2018-03-25T09:09:45.928Z,3.00
2018-03-25T09:10:45.924Z,3.00
2018-03-25T09:11:45.918Z,3.00
2018-03-25T09:12:45.917Z,2.80
2018-03-25T09:13:45.911Z,2.90
2018-03-25T09:14:45.896Z,2.60
2018-03-25T09:15:45.896Z,2.50
2018-03-25T09:16:45.892Z,3.00
2018-03-25T09:17:45.878Z,2.80
2018-03-25T09:18:45.891Z,3.20
2018-03-25T09:19:45.885Z,3.20
2018-03-25T09:20:45.885Z,2.90
2018-03-25T09:21:45.906Z,2.50
2018-03-25T09:22:45.869Z,3.30
2018-03-25T09:23:45.869Z,2.70
2018-03-25T09:24:45.853Z,2.90
2018-03-25T09:25:45.843Z,2.90
2018-03-25T09:26:45.852Z,3.00
2018-03-25T09:27:45.932Z,3.00
2018-03-25T09:28:45.830Z,3.30
2018-03-25T09:29:45.822Z,2.80
2018-03-25T09:30:45.819Z,3.00
2018-03-25T09:31:45.814Z,3.10
2018-03-25T09:32:45.821Z,3.10
2018-03-25T09:33:45.795Z,2.90
2018-03-25T09:34:45.790Z,2.60
2018-03-25T09:35:45.792Z,2.60
2018-03-25T09:36:45.786Z,2.50
2018-03-25T09:37:45.793Z,2.70
2018-03-25T09:38:45.777Z,2.50
2018-03-25T09:39:45.768Z,2.50
2018-03-25T09:40:45.782Z,2.60
2018-03-25T09:41:45.753Z,2.20
2018-03-25T09:42:45.757Z,2.30
2018-03-25T09:43:45.755Z,2.10
2018-03-25T09:44:45.759Z,2.00
2018-03-25T09:45:45.749Z,2.50
2018-03-25T09:46:45.733Z,2.30
2018-03-25T09:47:45.723Z,2.00
2018-03-25T09:48:45.728Z,2.10
2018-03-25T09:49:45.727Z,2.20
2018-03-25T09:50:45.701Z,2.00
2018-03-25T09:51:45.695Z,2.10
2018-03-25T09:52:45.695Z,2.20
2018-03-25T09:53:45.692Z,2.00
2018-03-25T09:54:45.695Z,1.80
2018-03-25T09:55:45.698Z,2.20
2018-03-25T09:56:45.673Z,2.10
2018-03-25T09:57:45.671Z,2.20
2018-03-25T09:58:45.689Z,2.20
2018-03-25T09:59:45.666Z,2.10
2018-03-25T10:00:45.655Z,2.00
2018-03-25T10:01:45.644Z,2.20
2018-03-25T10:02:45.658Z,2.60
2018-03-25T10:03:45.650Z,2.10
2018-03-25T10:04:45.707Z,2.10
2018-03-25T10:05:45.614Z,1.80
2018-03-25T10:06:45.610Z,1.80
2018-03-25T10:07:45.615Z,1.90
2018-03-25T10:08:45.619Z,2.10
2018-03-25T10:09:45.633Z,2.40
2018-03-25T10:10:45.597Z,1.80
2018-03-25T10:11:45.593Z,1.90
2018-03-25T10:12:45.593Z,2.00
2018-03-25T10:13:45.569Z,2.00
2018-03-25T10:14:45.564Z,2.00
2018-03-25T10:15:45.570Z,1.80
2018-03-25T10:16:45.655Z,2.00
2018-03-25T10:17:45.547Z,1.80
2018-03-25T10:18:45.549Z,2.50
2018-03-25T10:19:45.554Z,1.80
2018-03-25T10:20:45.532Z,1.80
2018-03-25T10:21:45.526Z,1.90
2018-03-25T10:22:45.530Z,2.00
2018-03-25T10:23:45.547Z,2.30
2018-03-25T10:24:45.519Z,1.60
2018-03-25T10:25:45.514Z,1.90
2018-03-25T10:26:45.519Z,2.10
2018-03-25T10:27:45.501Z,1.80
2018-03-25T10:28:45.504Z,1.80
2018-03-25T10:29:45.508Z,1.90
2018-03-25T10:30:45.493Z,1.70
2018-03-25T10:31:45.477Z,2.00
2018-03-25T10:32:45.464Z,1.70
2018-03-25T10:33:45.459Z,2.00
2018-03-25T10:34:45.463Z,2.10
2018-03-25T10:35:45.448Z,1.80
2018-03-25T10:36:45.459Z,1.90
2018-03-25T10:37:45.498Z,2.00
2018-03-25T10:38:45.505Z,1.80
2018-03-25T10:39:45.433Z,1.90
2018-03-25T10:40:45.427Z,2.00
2018-03-25T10:41:45.424Z,1.90
2018-03-25T10:42:45.419Z,2.20
2018-03-25T10:43:45.416Z,2.10
2018-03-25T10:44:45.405Z,2.10
2018-03-25T10:45:45.418Z,2.30
2018-03-25T10:46:45.393Z,2.00
2018-03-25T10:47:45.395Z,1.90
2018-03-25T10:48:45.386Z,1.90
2018-03-25T10:49:45.396Z,2.00
2018-03-25T10:50:45.374Z,2.00
2018-03-25T10:51:45.380Z,1.80
2018-03-25T10:52:45.375Z,1.70
2018-03-25T10:53:45.373Z,2.00
2018-03-25T10:54:45.368Z,1.80
2018-03-25T10:55:45.347Z,2.00
2018-03-25T10:56:45.353Z,1.90
2018-03-25T10:57:45.350Z,1.70
2018-03-25T10:58:45.346Z,2.20
2018-03-25T10:59:45.342Z,1.90
2018-03-25T11:00:45.319Z,2.10
2018-03-25T11:01:45.329Z,2.20
2018-03-25T11:02:45.298Z,1.70
2018-03-25T11:03:45.318Z,1.80
2018-03-25T11:04:45.359Z,1.90
2018-03-25T11:05:45.290Z,1.90
2018-03-25T11:06:45.301Z,1.90
2018-03-25T11:07:45.287Z,1.70
2018-03-25T11:08:45.290Z,1.90
2018-03-25T11:09:45.284Z,2.00
2018-03-25T11:10:45.279Z,1.70
2018-03-25T11:11:45.260Z,1.90
2018-03-25T11:12:45.254Z,1.80
2018-03-25T11:13:45.263Z,1.80
2018-03-25T11:14:45.258Z,1.80
2018-03-25T11:15:45.253Z,1.70
2018-03-25T11:16:45.241Z,2.00
2018-03-25T11:17:45.227Z,2.20
2018-03-25T11:18:45.222Z,1.70
2018-03-25T11:19:45.241Z,1.90
2018-03-25T11:20:45.227Z,2.00
2018-03-25T11:21:45.223Z,2.00
2018-03-25T11:22:45.206Z,2.00
2018-03-25T11:23:45.207Z,1.90
2018-03-25T11:24:45.188Z,2.00
2018-03-25T11:25:45.185Z,2.00
2018-03-25T11:26:45.189Z,2.10
2018-03-25T11:27:45.176Z,1.90
2018-03-25T11:28:45.185Z,1.90
2018-03-25T11:29:45.180Z,2.10
2018-03-25T11:30:45.160Z,2.20
2018-03-25T11:31:45.166Z,1.90
2018-03-25T11:32:45.166Z,1.70
2018-03-25T11:33:45.160Z,1.80
2018-03-25T11:34:45.140Z,1.80
2018-03-25T11:35:45.134Z,1.80
2018-03-25T11:36:45.146Z,2.00
2018-03-25T11:37:45.115Z,1.60
2018-03-25T11:38:45.112Z,1.70
2018-03-25T11:39:45.117Z,2.00
2018-03-25T11:40:45.119Z,1.70
2018-03-25T11:41:45.117Z,1.80
2018-03-25T11:42:45.097Z,1.60
2018-03-25T11:43:45.092Z,1.70
2018-03-25T11:44:45.088Z,1.80
2018-03-25T11:45:45.085Z,1.80
2018-03-25T11:46:45.078Z,1.60
2018-03-25T11:47:45.089Z,1.60
2018-03-25T11:48:45.084Z,1.70
2018-03-25T11:49:45.056Z,1.50
2018-03-25T11:50:45.059Z,1.70
2018-03-25T11:51:45.065Z,1.40
2018-03-25T11:52:45.043Z,1.50
2018-03-25T11:53:45.045Z,1.40
2018-03-25T11:54:45.057Z,1.40
2018-03-25T11:55:45.052Z,1.50
2018-03-25T11:56:45.043Z,1.40
2018-03-25T11:57:45.031Z,1.30
2018-03-25T11:58:45.038Z,1.40
2018-03-25T11:59:45.019Z,1.40
2018-03-25T12:00:45.008Z,1.90
2018-03-25T12:01:45.019Z,1.60
2018-03-25T12:02:45.057Z,1.40
2018-03-25T12:03:45.016Z,1.30
2018-03-25T12:04:45.012Z,1.50
2018-03-25T12:05:45.007Z,1.70
2018-03-25T12:06:44.988Z,1.50
2018-03-25T12:07:44.984Z,1.40
2018-03-25T12:08:44.979Z,1.60
2018-03-25T12:09:44.974Z,1.40
2018-03-25T12:10:44.985Z,1.80
2018-03-25T12:11:44.981Z,1.40
2018-03-25T12:12:44.963Z,1.30
2018-03-25T12:13:44.957Z,1.40
2018-03-25T12:14:44.968Z,1.50
2018-03-25T12:15:44.975Z,1.40
2018-03-25T12:16:44.970Z,1.50
2018-03-25T12:17:44.944Z,1.40
2018-03-25T12:18:44.936Z,1.60
2018-03-25T12:19:44.952Z,1.30
2018-03-25T12:20:44.944Z,1.40
2018-03-25T12:21:44.940Z,1.50
2018-03-25T12:22:44.920Z,1.60
2018-03-25T12:23:44.917Z,1.60
2018-03-25T12:24:44.917Z,1.40
2018-03-25T12:25:44.912Z,1.40
2018-03-25T12:26:44.926Z,1.30
2018-03-25T12:27:44.908Z,1.30
2018-03-25T12:28:44.899Z,1.40
2018-03-25T12:29:44.897Z,1.40
2018-03-25T12:30:44.892Z,1.30
2018-03-25T12:31:44.905Z,1.20
2018-03-25T12:32:44.887Z,1.30
2018-03-25T12:33:44.898Z,1.30
2018-03-25T12:34:44.899Z,1.20
2018-03-25T12:35:44.893Z,1.40
2018-03-25T12:36:44.878Z,1.30
2018-03-25T12:37:44.891Z,1.60
2018-03-25T12:38:44.876Z,1.30
2018-03-25T12:39:44.868Z,1.20
2018-03-25T12:40:44.865Z,1.40
2018-03-25T12:41:44.865Z,1.20
2018-03-25T12:42:44.860Z,1.50
2018-03-25T12:43:44.882Z,1.40
2018-03-25T12:44:44.906Z,1.20
2018-03-25T12:45:44.854Z,1.30
2018-03-25T12:46:44.853Z,1.30
2018-03-25T12:47:44.851Z,1.20
2018-03-25T12:48:44.885Z,1.10
2018-03-25T12:49:44.882Z,1.30
2018-03-25T12:50:44.849Z,1.40
2018-03-25T12:51:44.861Z,1.30
2018-03-25T12:52:44.850Z,1.30
2018-03-25T12:53:44.857Z,1.10
2018-03-25T12:54:44.845Z,1.20
2018-03-25T12:55:44.856Z,1.30
2018-03-25T12:56:44.839Z,1.20
2018-03-25T12:57:44.838Z,1.30
2018-03-25T12:58:44.875Z,1.20
2018-03-25T12:59:44.856Z,1.30
2018-03-25T13:00:44.845Z,1.20
2018-03-25T13:01:44.833Z,1.10
2018-03-25T13:02:44.833Z,1.60
2018-03-25T13:03:44.832Z,1.20
2018-03-25T13:04:44.827Z,1.20
2018-03-25T13:05:44.830Z,1.10
2018-03-25T13:06:44.829Z,1.10
2018-03-25T13:07:44.824Z,1.20
2018-03-25T13:08:44.830Z,1.20